Time;durP1;ratioP1;P1;durP2;ratioP2;P2;SDS_P1;SDS_P2;PMS_P1;PMS_P2;Temp;Humidity;BMP_temperature;BMP_pressure;BME280_temperature;BME280_humidity;BME280_pressure;Samples;Min_cycle;Max_cycle;Signal;HPM_P1;HPM_P2
2023/07/05 00:01:51;;;;;;;13.25;12.02;;;;;;;;;;5101501;28;20211;-65
2023/07/05 00:04:18;;;;;;;12.48;11.27;;;;;;;;;;5100848;28;20269;-65
2023/07/05 00:06:46;;;;;;;12.65;11.45;;;;;;;;;;5101349;28;20211;-65
2023/07/05 00:09:14;;;;;;;13.23;12.05;;;;;;;;;;5101324;28;20227;-65
2023/07/05 00:11:43;;;;;;;12.63;11.52;;;;;;;;;;5100998;28;20208;-65
2023/07/05 00:14:11;;;;;;;13.35;12.15;;;;;;;;;;5101150;28;20513;-65
2023/07/05 00:16:39;;;;;;;12.80;11.60;;;;;;;;;;5100953;28;20203;-65
2023/07/05 00:19:07;;;;;;;13.25;12.02;;;;;;;;;;5101231;28;20294;-65
2023/07/05 00:21:35;;;;;;;12.75;11.52;;;;;;;;;;5105248;28;20202;-65
2023/07/05 00:24:03;;;;;;;12.40;11.20;;;;;;;;;;5121666;28;20608;-65
2023/07/05 00:26:31;;;;;;;13.77;12.57;;;;;;;;;;5121657;28;20207;-65
2023/07/05 00:29:00;;;;;;;13.20;12.07;;;;;;;;;;5120970;28;20736;-65
2023/07/05 00:31:27;;;;;;;12.75;11.65;;;;;;;;;;5121365;28;20214;-65
2023/07/05 00:33:55;;;;;;;12.88;11.77;;;;;;;;;;5120935;28;20218;-65
2023/07/05 00:36:23;;;;;;;12.80;11.60;;;;;;;;;;5120754;28;20246;-64
2023/07/05 00:38:51;;;;;;;13.10;11.88;;;;;;;;;;5120823;28;20210;-64
2023/07/05 00:41:20;;;;;;;12.90;11.70;;;;;;;;;;5120553;28;20230;-65
2023/07/05 00:43:49;;;;;;;12.98;11.75;;;;;;;;;;5121270;28;20203;-65
2023/07/05 00:46:21;;;;;;;12.93;11.82;;;;;;;;;;5120885;28;20203;-65
2023/07/05 00:48:53;;;;;;;13.13;11.82;;;;;;;;;;5121210;28;20321;-65
2023/07/05 00:51:24;;;;;;;12.57;11.48;;;;;;;;;;5120783;28;20203;-65
2023/07/05 00:53:53;;;;;;;13.15;11.95;;;;;;;;;;5121092;28;20203;-65
2023/07/05 00:56:23;;;;;;;12.90;11.73;;;;;;;;;;5120532;28;20202;-66
2023/07/05 00:58:52;;;;;;;13.27;12.07;;;;;;;;;;5120843;28;20582;-65
2023/07/05 01:01:21;;;;;;;13.20;12.02;;;;;;;;;;5120716;28;20297;-65
2023/07/05 01:03:51;;;;;;;12.80;11.60;;;;;;;;;;5120215;28;20279;-65
2023/07/05 01:06:21;;;;;;;13.40;12.20;;;;;;;;;;5120399;28;20590;-65
2023/07/05 01:08:49;;;;;;;12.82;11.63;;;;;;;;;;5120397;28;20230;-64
2023/07/05 01:11:18;;;;;;;13.50;12.25;;;;;;;;;;5120466;28;20212;-65
2023/07/05 01:13:51;;;;;;;13.20;12.00;;;;;;;;;;5120541;28;20203;-65
2023/07/05 01:16:27;;;;;;;12.80;11.65;;;;;;;;;;5120471;28;20203;-65
2023/07/05 01:18:59;;;;;;;13.32;12.13;;;;;;;;;;5120229;28;20206;-65
2023/07/05 01:21:28;;;;;;;13.48;12.18;;;;;;;;;;5120227;28;20272;-64
2023/07/05 01:24:04;;;;;;;12.05;10.93;;;;;;;;;;5120123;28;20202;-65
2023/07/05 01:26:50;;;;;;;13.27;12.00;;;;;;;;;;5120269;28;20211;-65
2023/07/05 01:29:41;;;;;;;12.35;11.25;;;;;;;;;;5119873;28;20227;-65
2023/07/05 01:32:12;;;;;;;13.50;12.20;;;;;;;;;;5120159;28;20210;-65
2023/07/05 01:34:44;;;;;;;12.95;11.75;;;;;;;;;;5120209;28;20206;-65
2023/07/05 01:37:12;;;;;;;13.52;12.13;;;;;;;;;;5120063;28;20234;-65
2023/07/05 01:39:40;;;;;;;13.15;11.95;;;;;;;;;;5119459;28;20206;-65
2023/07/05 01:42:07;;;;;;;13.18;11.98;;;;;;;;;;5120090;28;20210;-65
2023/07/05 01:44:35;;;;;;;12.73;11.52;;;;;;;;;;5120017;28;20297;-65
2023/07/05 01:47:06;;;;;;;13.20;11.93;;;;;;;;;;5119757;28;20202;-65
2023/07/05 01:49:38;;;;;;;14.20;12.90;;;;;;;;;;5119548;28;20223;-65
2023/07/05 01:52:11;;;;;;;13.93;12.63;;;;;;;;;;5119598;28;20203;-65
2023/07/05 01:54:42;;;;;;;13.45;12.25;;;;;;;;;;5119432;28;20214;-65
2023/07/05 01:57:12;;;;;;;13.60;12.30;;;;;;;;;;5119648;28;20199;-64
2023/07/05 01:59:43;;;;;;;13.15;11.95;;;;;;;;;;5119268;28;20214;-65
2023/07/05 02:02:11;;;;;;;13.23;12.02;;;;;;;;;;5119690;28;20203;-65
2023/07/05 02:04:40;;;;;;;13.93;12.73;;;;;;;;;;5119712;28;20214;-65
2023/07/05 02:07:08;;;;;;;13.55;12.32;;;;;;;;;;5119531;28;20246;-65
2023/07/05 02:09:42;;;;;;;12.82;11.65;;;;;;;;;;5119230;28;20326;-64
2023/07/05 02:12:10;;;;;;;12.98;11.77;;;;;;;;;;5118715;28;20211;-65
2023/07/05 02:14:38;;;;;;;13.38;12.13;;;;;;;;;;5118207;28;20600;-65
2023/07/05 02:17:06;;;;;;;13.10;11.90;;;;;;;;;;5118742;28;20570;-65
2023/07/05 02:19:33;;;;;;;13.05;11.82;;;;;;;;;;5118826;28;20243;-64
2023/07/05 02:22:03;;;;;;;13.30;12.10;;;;;;;;;;5118977;28;20574;-65
2023/07/05 02:24:30;;;;;;;13.82;12.52;;;;;;;;;;5118797;28;20246;-65
2023/07/05 02:26:59;;;;;;;13.23;12.00;;;;;;;;;;5119166;28;20496;-64
2023/07/05 02:29:29;;;;;;;13.30;12.10;;;;;;;;;;5118718;28;20626;-65
2023/07/05 02:31:57;;;;;;;12.80;11.63;;;;;;;;;;5118849;28;20203;-64
2023/07/05 02:34:24;;;;;;;13.95;12.65;;;;;;;;;;5118948;28;20606;-65
2023/07/05 02:36:52;;;;;;;13.75;12.45;;;;;;;;;;5118729;28;20297;-64
2023/07/05 02:39:22;;;;;;;13.32;12.13;;;;;;;;;;5118453;28;20264;-65
2023/07/05 02:41:50;;;;;;;13.40;12.20;;;;;;;;;;5118683;28;20210;-65
2023/07/05 02:44:17;;;;;;;13.57;12.38;;;;;;;;;;5118643;28;20202;-64
2023/07/05 02:46:45;;;;;;;12.63;11.52;;;;;;;;;;5118502;28;20226;-65
2023/07/05 02:49:12;;;;;;;13.30;12.10;;;;;;;;;;5118554;28;20263;-65
2023/07/05 02:51:41;;;;;;;13.27;12.13;;;;;;;;;;5118429;28;20214;-66
2023/07/05 02:54:09;;;;;;;13.23;11.93;;;;;;;;;;5118034;28;20199;-64
2023/07/05 02:56:38;;;;;;;12.93;11.73;;;;;;;;;;5118626;28;20203;-65
2023/07/05 02:59:05;;;;;;;13.15;11.95;;;;;;;;;;5118458;28;20203;-64
2023/07/05 03:01:33;;;;;;;13.70;12.50;;;;;;;;;;5118170;28;20651;-64
2023/07/05 03:04:01;;;;;;;13.20;12.00;;;;;;;;;;5118199;28;20210;-64
2023/07/05 03:06:29;;;;;;;13.60;12.30;;;;;;;;;;5117936;28;20463;-65
2023/07/05 03:08:56;;;;;;;13.00;11.82;;;;;;;;;;5117697;28;20234;-65
2023/07/05 03:11:24;;;;;;;13.23;12.02;;;;;;;;;;5117994;28;20223;-64
2023/07/05 03:13:53;;;;;;;13.00;11.80;;;;;;;;;;5118155;28;20203;-65
2023/07/05 03:16:20;;;;;;;14.55;12.57;;;;;;;;;;5117286;28;20760;-65
2023/07/05 03:18:48;;;;;;;13.38;12.07;;;;;;;;;;5117758;28;20209;-65
2023/07/05 03:21:16;;;;;;;13.60;12.30;;;;;;;;;;5117439;28;20234;-64
2023/07/05 03:23:43;;;;;;;13.40;12.15;;;;;;;;;;5117253;28;20264;-64
2023/07/05 03:26:11;;;;;;;13.60;12.40;;;;;;;;;;5117515;28;20206;-65
2023/07/05 03:28:39;;;;;;;12.63;11.52;;;;;;;;;;5118174;28;20203;-65
2023/07/05 03:31:11;;;;;;;13.00;11.80;;;;;;;;;;5117527;28;20227;-64
2023/07/05 03:33:39;;;;;;;13.13;11.95;;;;;;;;;;5117776;28;20264;-65
2023/07/05 03:36:07;;;;;;;12.95;11.75;;;;;;;;;;5117742;28;20509;-64
2023/07/05 03:38:35;;;;;;;11.65;10.50;;;;;;;;;;5117710;28;20226;-65
2023/07/05 03:41:03;;;;;;;12.75;11.45;;;;;;;;;;5117180;28;20512;-65
2023/07/05 03:43:35;;;;;;;13.02;11.82;;;;;;;;;;5117104;28;20210;-65
2023/07/05 03:46:04;;;;;;;12.77;11.57;;;;;;;;;;5117509;28;20202;-64
2023/07/05 03:48:36;;;;;;;12.75;11.55;;;;;;;;;;5117004;28;20211;-64
2023/07/05 03:51:04;;;;;;;12.43;11.32;;;;;;;;;;5117082;28;20222;-65
2023/07/05 03:53:33;;;;;;;13.27;11.93;;;;;;;;;;5117131;28;20574;-65
2023/07/05 03:56:01;;;;;;;12.95;11.82;;;;;;;;;;5117001;28;20629;-65
2023/07/05 03:58:29;;;;;;;12.27;11.18;;;;;;;;;;5117108;28;20283;-64
2023/07/05 04:01:04;;;;;;;11.82;10.82;;;;;;;;;;5117013;28;20225;-64
2023/07/05 04:03:33;;;;;;;12.55;11.32;;;;;;;;;;5117209;28;20275;-64
2023/07/05 04:06:00;;;;;;;13.48;12.27;;;;;;;;;;5116952;28;20203;-63
2023/07/05 04:08:27;;;;;;;12.57;11.48;;;;;;;;;;5117122;28;20218;-63
2023/07/05 04:10:55;;;;;;;12.75;11.55;;;;;;;;;;5117155;28;20229;-62
2023/07/05 04:13:22;;;;;;;13.35;12.05;;;;;;;;;;5116907;28;20207;-60
2023/07/05 04:15:58;;;;;;;12.63;11.45;;;;;;;;;;5116947;28;20203;-63
2023/07/05 04:18:25;;;;;;;13.23;12.02;;;;;;;;;;5117001;28;20635;-63
2023/07/05 04:20:54;;;;;;;12.45;11.35;;;;;;;;;;5117022;28;20539;-62
2023/07/05 04:23:21;;;;;;;12.27;11.18;;;;;;;;;;5116561;28;20211;-62
2023/07/05 04:25:49;;;;;;;12.45;11.35;;;;;;;;;;5116865;28;20203;-63
2023/07/05 04:28:16;;;;;;;13.00;11.80;;;;;;;;;;5115943;28;20195;-63
2023/07/05 04:30:45;;;;;;;12.82;11.63;;;;;;;;;;5117037;28;20230;-63
2023/07/05 04:33:12;;;;;;;12.95;11.75;;;;;;;;;;5116589;28;20499;-64
2023/07/05 04:35:47;;;;;;;12.68;11.48;;;;;;;;;;5116475;28;20202;-62
2023/07/05 04:38:15;;;;;;;13.52;12.23;;;;;;;;;;5118516;28;20233;-62
2023/07/05 04:40:43;;;;;;;13.88;12.52;;;;;;;;;;5119667;28;20240;-64
2023/07/05 04:43:10;;;;;;;13.35;12.05;;;;;;;;;;5120329;28;20203;-63
2023/07/05 04:45:37;;;;;;;12.65;11.52;;;;;;;;;;5118764;28;20210;-64
2023/07/05 04:48:05;;;;;;;13.05;11.85;;;;;;;;;;5118690;28;20203;-63
2023/07/05 04:50:32;;;;;;;12.98;11.77;;;;;;;;;;5118697;28;20223;-63
2023/07/05 04:53:00;;;;;;;13.80;12.50;;;;;;;;;;5119013;28;20203;-63
2023/07/05 04:55:28;;;;;;;13.10;11.95;;;;;;;;;;5118970;28;20752;-63
2023/07/05 04:57:56;;;;;;;13.10;11.90;;;;;;;;;;5119174;28;20195;-63
2023/07/05 05:00:24;;;;;;;13.80;12.50;;;;;;;;;;5118657;28;20579;-63
2023/07/05 05:02:52;;;;;;;13.77;12.48;;;;;;;;;;5118178;28;20500;-63
2023/07/05 05:05:19;;;;;;;13.77;12.55;;;;;;;;;;5118356;28;20202;-63
2023/07/05 05:07:47;;;;;;;12.63;11.43;;;;;;;;;;5118238;28;20205;-63
2023/07/05 05:10:14;;;;;;;12.73;11.52;;;;;;;;;;5117494;28;20532;-61
2023/07/05 05:12:43;;;;;;;13.07;11.77;;;;;;;;;;5116992;28;20221;-63
2023/07/05 05:15:10;;;;;;;11.23;10.18;;;;;;;;;;5117669;28;20213;-63
2023/07/05 05:17:38;;;;;;;11.80;10.68;;;;;;;;;;5116956;28;20199;-62
2023/07/05 05:20:07;;;;;;;11.07;10.00;;;;;;;;;;5117128;28;20615;-63
2023/07/05 05:22:34;;;;;;;10.75;9.75;;;;;;;;;;5117512;28;20535;-64
2023/07/05 05:25:01;;;;;;;8.48;7.68;;;;;;;;;;5117375;28;20698;-64
2023/07/05 05:27:29;;;;;;;7.75;7.05;;;;;;;;;;5117520;28;20198;-63
2023/07/05 05:29:57;;;;;;;6.95;6.25;;;;;;;;;;5117211;28;20209;-63
2023/07/05 05:32:25;;;;;;;6.28;5.35;;;;;;;;;;5117531;28;20205;-63
2023/07/05 05:34:52;;;;;;;6.78;5.57;;;;;;;;;;5117200;28;20224;-64
2023/07/05 05:37:20;;;;;;;5.68;5.13;;;;;;;;;;5116568;28;20203;-63
2023/07/05 05:39:47;;;;;;;4.40;3.90;;;;;;;;;;5116662;28;20210;-63
2023/07/05 05:42:14;;;;;;;4.15;3.75;;;;;;;;;;5116402;28;20198;-63
2023/07/05 05:44:42;;;;;;;4.53;3.90;;;;;;;;;;5117055;28;20203;-63
2023/07/05 05:47:11;;;;;;;4.00;3.60;;;;;;;;;;5117025;28;20211;-64
2023/07/05 05:49:38;;;;;;;4.10;3.20;;;;;;;;;;5115235;28;20207;-64
2023/07/05 05:52:06;;;;;;;3.70;3.40;;;;;;;;;;5115466;28;20223;-63
2023/07/05 05:54:35;;;;;;;5.75;3.20;;;;;;;;;;5116705;28;20211;-63
2023/07/05 05:57:02;;;;;;;3.22;2.92;;;;;;;;;;5116282;28;20214;-62
2023/07/05 05:59:30;;;;;;;3.35;3.03;;;;;;;;;;5116426;28;20199;-62
2023/07/05 06:01:57;;;;;;;4.20;3.17;;;;;;;;;;5115823;28;20646;-63
2023/07/05 06:04:26;;;;;;;2.75;2.50;;;;;;;;;;5116429;28;20210;-63
2023/07/05 06:06:53;;;;;;;3.00;2.70;;;;;;;;;;5117047;28;20203;-63
2023/07/05 06:09:24;;;;;;;3.13;2.83;;;;;;;;;;5116311;28;20213;-63
2023/07/05 06:11:51;;;;;;;2.95;2.70;;;;;;;;;;5116522;28;20614;-63
2023/07/05 06:14:19;;;;;;;2.75;2.55;;;;;;;;;;5116497;28;20709;-63
2023/07/05 06:16:46;;;;;;;2.75;2.30;;;;;;;;;;5116411;28;20199;-63
2023/07/05 06:19:13;;;;;;;3.35;2.78;;;;;;;;;;5115371;28;20207;-63
2023/07/05 06:21:42;;;;;;;2.45;2.25;;;;;;;;;;5116636;28;20199;-62
2023/07/05 06:24:09;;;;;;;2.42;2.22;;;;;;;;;;5117373;28;20203;-62
2023/07/05 06:26:40;;;;;;;4.10;2.33;;;;;;;;;;5116666;28;20578;-62
2023/07/05 06:29:07;;;;;;;2.40;2.03;;;;;;;;;;5116321;28;20210;-63
2023/07/05 06:31:35;;;;;;;2.30;2.10;;;;;;;;;;5115983;28;20228;-61
2023/07/05 06:34:03;;;;;;;3.08;2.50;;;;;;;;;;5115568;28;20623;-63
2023/07/05 06:36:32;;;;;;;2.70;2.20;;;;;;;;;;5115438;28;20203;-64
2023/07/05 06:39:02;;;;;;;2.50;2.30;;;;;;;;;;5116426;28;20198;-62
2023/07/05 06:41:31;;;;;;;2.70;2.40;;;;;;;;;;5116307;28;20585;-62
2023/07/05 06:43:59;;;;;;;3.50;2.15;;;;;;;;;;5116552;28;20206;-63
2023/07/05 06:46:27;;;;;;;2.75;2.30;;;;;;;;;;5116148;28;21685;-63
2023/07/05 06:48:55;;;;;;;2.20;1.92;;;;;;;;;;5116263;28;20718;-63
2023/07/05 06:51:24;;;;;;;3.08;2.08;;;;;;;;;;5115746;28;20223;-63
2023/07/05 06:53:52;;;;;;;2.65;2.22;;;;;;;;;;5115404;28;20214;-63
2023/07/05 06:56:22;;;;;;;2.45;2.25;;;;;;;;;;5115606;28;20206;-62
2023/07/05 06:58:50;;;;;;;5.07;2.20;;;;;;;;;;5097270;28;20199;-63
2023/07/05 07:01:18;;;;;;;2.85;2.17;;;;;;;;;;5115289;28;20574;-63
2023/07/05 07:03:45;;;;;;;3.35;2.40;;;;;;;;;;5115549;28;20252;-62
2023/07/05 07:06:13;;;;;;;2.83;2.35;;;;;;;;;;5114862;28;20203;-63
2023/07/05 07:08:41;;;;;;;3.25;2.55;;;;;;;;;;5114707;28;20608;-62
2023/07/05 07:11:09;;;;;;;3.53;2.45;;;;;;;;;;5115496;28;20629;-64
2023/07/05 07:13:39;;;;;;;2.95;2.72;;;;;;;;;;5115638;28;20203;-64
2023/07/05 07:16:07;;;;;;;2.67;2.47;;;;;;;;;;5115651;28;20211;-63
2023/07/05 07:18:36;;;;;;;3.13;2.83;;;;;;;;;;5115443;28;20195;-60
2023/07/05 07:21:05;;;;;;;2.72;2.45;;;;;;;;;;5114920;28;20287;-63
2023/07/05 07:23:33;;;;;;;3.10;2.75;;;;;;;;;;5115472;28;20206;-63
2023/07/05 07:26:02;;;;;;;4.28;2.65;;;;;;;;;;5114576;28;20567;-63
2023/07/05 07:28:30;;;;;;;3.58;2.90;;;;;;;;;;5114605;28;20210;-62
2023/07/05 07:30:59;;;;;;;3.22;2.85;;;;;;;;;;5114285;28;20276;-63
2023/07/05 07:33:27;;;;;;;3.33;3.00;;;;;;;;;;5115840;28;20233;-63
2023/07/05 07:35:55;;;;;;;3.90;3.33;;;;;;;;;;5115215;28;20297;-63
2023/07/05 07:38:23;;;;;;;3.72;3.10;;;;;;;;;;5116200;28;20203;-64
2023/07/05 07:40:50;;;;;;;3.45;3.13;;;;;;;;;;5116134;28;20230;-63
2023/07/05 07:43:17;;;;;;;3.35;3.00;;;;;;;;;;5115320;28;20194;-64
2023/07/05 07:45:45;;;;;;;4.25;3.53;;;;;;;;;;5115487;28;20507;-62
2023/07/05 07:48:14;;;;;;;3.50;3.20;;;;;;;;;;5115353;28;20214;-63
2023/07/05 07:50:41;;;;;;;3.58;3.28;;;;;;;;;;5115277;28;20616;-62
2023/07/05 07:53:08;;;;;;;4.03;3.30;;;;;;;;;;5114949;28;20607;-63
2023/07/05 07:55:36;;;;;;;3.83;3.22;;;;;;;;;;5114301;28;20295;-63
2023/07/05 07:58:03;;;;;;;3.75;3.03;;;;;;;;;;5114961;28;20203;-66
2023/07/05 08:00:31;;;;;;;4.20;3.30;;;;;;;;;;5115651;28;20203;-64
2023/07/05 08:02:58;;;;;;;4.10;3.00;;;;;;;;;;5114463;28;20199;-62
2023/07/05 08:05:28;;;;;;;3.00;2.70;;;;;;;;;;5115080;28;20209;-63
2023/07/05 08:07:55;;;;;;;3.95;3.08;;;;;;;;;;5115154;28;20195;-63
2023/07/05 08:10:23;;;;;;;2.75;2.55;;;;;;;;;;5115255;28;20203;-66
2023/07/05 08:12:50;;;;;;;2.92;2.65;;;;;;;;;;5116576;28;20223;-61
2023/07/05 08:15:18;;;;;;;3.30;2.83;;;;;;;;;;5119019;28;20488;-62
2023/07/05 08:17:45;;;;;;;2.70;2.50;;;;;;;;;;5118458;28;20203;-63
2023/07/05 08:20:13;;;;;;;3.28;2.70;;;;;;;;;;5118098;28;20522;-62
2023/07/05 08:22:43;;;;;;;3.17;2.65;;;;;;;;;;5117833;28;20199;-62
2023/07/05 08:25:10;;;;;;;3.92;2.75;;;;;;;;;;5118620;28;20195;-64
2023/07/05 08:27:38;;;;;;;3.10;2.80;;;;;;;;;;5118236;28;20222;-62
2023/07/05 08:30:06;;;;;;;2.83;2.42;;;;;;;;;;5119010;28;20222;-62
2023/07/05 08:32:33;;;;;;;2.70;2.50;;;;;;;;;;5117786;28;20770;-62
2023/07/05 08:35:01;;;;;;;5.75;2.75;;;;;;;;;;5118289;28;20217;-64
2023/07/05 08:37:29;;;;;;;3.42;2.78;;;;;;;;;;5117515;28;20203;-63
2023/07/05 08:39:58;;;;;;;3.53;2.75;;;;;;;;;;5117831;28;20209;-64
2023/07/05 08:42:31;;;;;;;2.70;2.50;;;;;;;;;;5118351;28;20466;-63
2023/07/05 08:45:02;;;;;;;2.80;2.50;;;;;;;;;;5118378;28;20232;-65
2023/07/05 08:47:32;;;;;;;2.72;2.53;;;;;;;;;;5118243;28;20199;-62
2023/07/05 08:50:03;;;;;;;3.00;2.70;;;;;;;;;;5118485;28;20579;-63
2023/07/05 08:52:32;;;;;;;3.83;2.45;;;;;;;;;;5117746;28;20280;-63
2023/07/05 08:55:04;;;;;;;3.45;2.53;;;;;;;;;;5117457;28;20203;-64
2023/07/05 08:57:33;;;;;;;2.72;2.33;;;;;;;;;;5117741;28;20297;-65
2023/07/05 09:00:02;;;;;;;2.50;2.30;;;;;;;;;;5117375;28;20571;-63
2023/07/05 09:02:29;;;;;;;2.85;2.60;;;;;;;;;;5117151;28;20586;-64
2023/07/05 09:04:58;;;;;;;2.97;2.67;;;;;;;;;;5115578;28;20772;-65
2023/07/05 09:07:30;;;;;;;2.80;2.60;;;;;;;;;;5118299;28;20290;-65
2023/07/05 09:10:04;;;;;;;3.03;2.40;;;;;;;;;;5117611;28;20310;-65
2023/07/05 09:12:37;;;;;;;4.20;2.58;;;;;;;;;;5116786;28;20227;-62
2023/07/05 09:15:13;;;;;;;3.25;2.47;;;;;;;;;;5117292;28;20218;-65
2023/07/05 09:17:49;;;;;;;2.63;2.40;;;;;;;;;;5116640;28;20271;-64
2023/07/05 09:20:22;;;;;;;2.70;2.50;;;;;;;;;;5117162;28;20551;-64
2023/07/05 09:22:51;;;;;;;3.30;2.90;;;;;;;;;;5117326;28;20195;-64
2023/07/05 09:25:19;;;;;;;2.90;2.60;;;;;;;;;;5117395;28;20631;-64
2023/07/05 09:27:50;;;;;;;3.35;2.47;;;;;;;;;;5116807;28;20596;-64
2023/07/05 09:30:24;;;;;;;2.45;2.22;;;;;;;;;;5117831;28;20211;-64
2023/07/05 09:32:55;;;;;;;3.75;2.60;;;;;;;;;;5116526;28;20224;-64
2023/07/05 09:35:25;;;;;;;3.05;2.75;;;;;;;;;;5116982;28;20210;-64
2023/07/05 09:37:55;;;;;;;4.80;2.83;;;;;;;;;;5116708;28;20229;-65
2023/07/05 09:40:28;;;;;;;5.00;2.90;;;;;;;;;;5117262;28;20735;-65
2023/07/05 09:42:59;;;;;;;3.40;2.78;;;;;;;;;;5117274;28;20207;-64
2023/07/05 09:45:27;;;;;;;3.30;2.70;;;;;;;;;;5116490;28;20253;-65
2023/07/05 09:47:59;;;;;;;3.35;2.72;;;;;;;;;;5116615;28;20203;-65
2023/07/05 09:50:27;;;;;;;3.03;2.72;;;;;;;;;;5116227;28;20334;-65
2023/07/05 09:52:59;;;;;;;2.83;2.10;;;;;;;;;;5116736;28;20241;-65
2023/07/05 09:55:27;;;;;;;3.72;2.20;;;;;;;;;;5115587;28;20681;-65
2023/07/05 09:57:54;;;;;;;2.78;2.08;;;;;;;;;;5116275;28;20293;-66
2023/07/05 10:00:25;;;;;;;3.00;2.17;;;;;;;;;;5116285;28;20210;-65
2023/07/05 10:02:54;;;;;;;3.47;2.42;;;;;;;;;;5116083;28;20210;-66
2023/07/05 10:05:26;;;;;;;4.22;2.40;;;;;;;;;;5115545;28;20203;-66
2023/07/05 10:07:56;;;;;;;3.38;2.30;;;;;;;;;;5115983;28;20229;-65
2023/07/05 10:10:26;;;;;;;2.42;2.22;;;;;;;;;;5115660;28;20238;-66
2023/07/05 10:13:01;;;;;;;2.58;2.17;;;;;;;;;;5114841;28;20499;-65
2023/07/05 10:15:30;;;;;;;2.22;1.90;;;;;;;;;;5073582;28;20204;-66
2023/07/05 10:17:58;;;;;;;2.60;1.80;;;;;;;;;;5074301;28;20211;-66
2023/07/05 10:20:28;;;;;;;3.20;1.77;;;;;;;;;;5063843;28;20251;-66
2023/07/05 10:23:02;;;;;;;2.20;1.85;;;;;;;;;;5054707;28;20208;-66
2023/07/05 10:25:33;;;;;;;2.20;2.00;;;;;;;;;;5055463;28;20205;-66
2023/07/05 10:28:02;;;;;;;2.33;1.80;;;;;;;;;;5052892;28;20274;-65
2023/07/05 10:30:33;;;;;;;2.22;2.03;;;;;;;;;;5034922;28;20614;-65
2023/07/05 10:33:11;;;;;;;2.17;1.98;;;;;;;;;;5053320;28;20282;-66
2023/07/05 10:35:48;;;;;;;2.33;1.83;;;;;;;;;;5053991;28;20259;-65
2023/07/05 10:38:27;;;;;;;1.95;1.75;;;;;;;;;;5054200;28;20293;-66
2023/07/05 10:40:57;;;;;;;1.55;1.45;;;;;;;;;;5054208;28;20201;-66
2023/07/05 10:43:25;;;;;;;2.00;1.75;;;;;;;;;;5053638;28;20228;-65
2023/07/05 10:45:56;;;;;;;1.88;1.60;;;;;;;;;;5054741;28;20211;-66
2023/07/05 10:48:26;;;;;;;1.85;1.67;;;;;;;;;;5054842;28;20205;-65
2023/07/05 10:50:54;;;;;;;1.80;1.70;;;;;;;;;;5054753;28;20592;-66
2023/07/05 10:53:25;;;;;;;1.80;1.70;;;;;;;;;;5054906;28;20259;-66
2023/07/05 10:56:04;;;;;;;1.60;1.50;;;;;;;;;;5055296;28;20591;-65
2023/07/05 10:58:37;;;;;;;1.65;1.55;;;;;;;;;;5054836;28;20205;-66
2023/07/05 11:01:13;;;;;;;1.90;1.70;;;;;;;;;;5054096;28;20290;-65
2023/07/05 11:03:44;;;;;;;1.70;1.60;;;;;;;;;;5055578;28;20308;-65
2023/07/05 11:06:12;;;;;;;1.70;1.60;;;;;;;;;;5054892;28;20253;-65
2023/07/05 11:08:41;;;;;;;2.05;1.60;;;;;;;;;;5054465;28;20276;-66
2023/07/05 11:11:13;;;;;;;1.70;1.60;;;;;;;;;;5053781;28;20201;-65
2023/07/05 11:13:40;;;;;;;1.60;1.50;;;;;;;;;;5054368;28;20319;-65
2023/07/05 11:16:10;;;;;;;1.50;1.40;;;;;;;;;;5052672;28;20754;-65
2023/07/05 11:18:38;;;;;;;1.50;1.40;;;;;;;;;;5054397;28;20209;-66
2023/07/05 11:21:08;;;;;;;1.67;1.58;;;;;;;;;;5070285;28;20683;-65
2023/07/05 11:23:53;;;;;;;1.60;1.50;;;;;;;;;;5073527;28;20468;-65
2023/07/05 11:26:34;;;;;;;1.58;1.48;;;;;;;;;;5073550;28;20211;-66
2023/07/05 11:29:03;;;;;;;1.70;1.60;;;;;;;;;;5073063;28;20196;-66
2023/07/05 11:31:45;;;;;;;1.60;1.50;;;;;;;;;;5073832;28;20266;-65
2023/07/05 11:34:32;;;;;;;1.98;1.80;;;;;;;;;;5071194;28;20274;-65
2023/07/05 11:37:14;;;;;;;1.65;1.50;;;;;;;;;;5074646;28;20480;-65
2023/07/05 11:39:43;;;;;;;1.40;1.30;;;;;;;;;;5073190;28;20203;-65
2023/07/05 11:42:29;;;;;;;1.70;1.60;;;;;;;;;;5074665;28;20200;-65
2023/07/05 11:45:13;;;;;;;1.60;1.50;;;;;;;;;;5073861;28;20601;-66
2023/07/05 11:47:48;;;;;;;1.60;1.50;;;;;;;;;;5074140;28;20207;-65
2023/07/05 11:50:16;;;;;;;1.90;1.60;;;;;;;;;;5077904;28;20236;-65
2023/07/05 11:52:46;;;;;;;1.52;1.42;;;;;;;;;;5077719;28;20631;-65
2023/07/05 11:55:18;;;;;;;1.70;1.60;;;;;;;;;;5077274;28;20204;-65
2023/07/05 11:57:48;;;;;;;1.70;1.60;;;;;;;;;;5077884;28;20699;-65
2023/07/05 12:00:18;;;;;;;1.70;1.60;;;;;;;;;;5077828;28;20196;-65
2023/07/05 12:03:04;;;;;;;1.92;1.80;;;;;;;;;;5077070;28;20231;-65
2023/07/05 12:05:33;;;;;;;1.55;1.45;;;;;;;;;;5077575;28;20212;-66
2023/07/05 12:08:05;;;;;;;1.90;1.80;;;;;;;;;;5077309;28;20204;-65
2023/07/05 12:10:36;;;;;;;1.55;1.45;;;;;;;;;;5077769;28;20211;-65
2023/07/05 12:13:06;;;;;;;1.70;1.60;;;;;;;;;;5077499;28;20665;-66
2023/07/05 12:15:36;;;;;;;2.00;1.60;;;;;;;;;;5077314;28;20250;-65
2023/07/05 12:18:04;;;;;;;1.63;1.52;;;;;;;;;;5077184;28;20755;-65
2023/07/05 12:20:36;;;;;;;1.63;1.52;;;;;;;;;;5077501;28;20224;-66
2023/07/05 12:23:07;;;;;;;1.70;1.50;;;;;;;;;;5077495;28;20243;-65
2023/07/05 12:25:38;;;;;;;1.50;1.40;;;;;;;;;;5077268;28;20625;-65
2023/07/05 12:28:10;;;;;;;1.60;1.50;;;;;;;;;;5077651;28;20214;-65
2023/07/05 12:30:41;;;;;;;1.70;1.60;;;;;;;;;;5076901;28;20197;-65
2023/07/05 12:33:20;;;;;;;1.88;1.77;;;;;;;;;;5077197;28;20242;-66
2023/07/05 12:35:50;;;;;;;2.67;1.90;;;;;;;;;;5077104;28;20200;-66
2023/07/05 12:38:18;;;;;;;3.15;1.73;;;;;;;;;;5076866;28;20467;-65
2023/07/05 12:40:54;;;;;;;2.10;1.90;;;;;;;;;;5076382;28;20607;-66
2023/07/05 12:43:23;;;;;;;1.50;1.40;;;;;;;;;;5076785;28;20196;-65
2023/07/05 12:45:51;;;;;;;1.60;1.50;;;;;;;;;;5077270;28;20627;-65
2023/07/05 12:48:24;;;;;;;2.03;1.65;;;;;;;;;;5076536;28;20212;-65
2023/07/05 12:51:02;;;;;;;1.50;1.38;;;;;;;;;;5077021;28;20236;-65
2023/07/05 12:53:30;;;;;;;1.88;1.70;;;;;;;;;;5075846;28;20224;-66
2023/07/05 12:56:02;;;;;;;1.48;1.38;;;;;;;;;;5076376;28;20207;-65
2023/07/05 12:58:31;;;;;;;2.03;1.92;;;;;;;;;;5076059;28;20236;-66
2023/07/05 13:01:00;;;;;;;1.80;1.70;;;;;;;;;;5076808;28;20214;-65
2023/07/05 13:03:28;;;;;;;1.95;1.60;;;;;;;;;;5076338;28;20313;-65
2023/07/05 13:05:56;;;;;;;2.42;2.00;;;;;;;;;;5076445;28;20307;-64
2023/07/05 13:08:24;;;;;;;1.70;1.60;;;;;;;;;;5077236;28;20204;-65
2023/07/05 13:10:52;;;;;;;1.98;1.77;;;;;;;;;;5076926;28;20204;-66
2023/07/05 13:13:25;;;;;;;1.95;1.73;;;;;;;;;;5075455;28;20224;-66
2023/07/05 13:15:52;;;;;;;1.83;1.60;;;;;;;;;;5075823;28;20211;-66
2023/07/05 13:18:27;;;;;;;1.80;1.70;;;;;;;;;;5074885;28;20230;-66
2023/07/05 13:21:14;;;;;;;1.80;1.70;;;;;;;;;;5074533;28;20267;-65
2023/07/05 13:23:47;;;;;;;1.80;1.70;;;;;;;;;;5075367;28;20208;-64
2023/07/05 13:26:37;;;;;;;1.63;1.52;;;;;;;;;;5075012;28;20200;-65
2023/07/05 13:29:17;;;;;;;1.90;1.80;;;;;;;;;;5069823;28;20209;-66
2023/07/05 13:31:48;;;;;;;2.03;1.92;;;;;;;;;;5074657;28;20200;-65
2023/07/05 13:34:16;;;;;;;1.80;1.70;;;;;;;;;;5076104;28;20235;-66
2023/07/05 13:36:45;;;;;;;1.98;1.73;;;;;;;;;;5075679;28;20600;-66
2023/07/05 13:39:14;;;;;;;2.20;2.00;;;;;;;;;;5075478;28;20303;-66
2023/07/05 13:41:41;;;;;;;2.63;2.10;;;;;;;;;;5074605;28;20239;-66
2023/07/05 13:44:13;;;;;;;2.05;1.88;;;;;;;;;;5075939;28;20192;-66
2023/07/05 13:46:42;;;;;;;2.40;2.20;;;;;;;;;;5075897;28;20204;-66
2023/07/05 13:49:10;;;;;;;2.40;2.20;;;;;;;;;;5075830;28;20208;-65
2023/07/05 13:51:40;;;;;;;2.20;2.00;;;;;;;;;;5075730;28;20196;-66
2023/07/05 13:54:10;;;;;;;2.03;1.83;;;;;;;;;;5074786;28;20326;-66
2023/07/05 13:56:38;;;;;;;2.50;2.20;;;;;;;;;;5074920;28;20204;-66
2023/07/05 13:59:06;;;;;;;2.30;2.10;;;;;;;;;;5074498;28;20206;-66
2023/07/05 14:01:37;;;;;;;2.25;2.05;;;;;;;;;;5074250;28;20212;-65
2023/07/05 14:04:05;;;;;;;2.30;2.10;;;;;;;;;;5075695;28;20267;-66
2023/07/05 14:06:33;;;;;;;2.08;1.98;;;;;;;;;;5075601;28;20204;-66
2023/07/05 14:09:02;;;;;;;2.15;2.00;;;;;;;;;;5075431;28;20208;-66
2023/07/05 14:11:31;;;;;;;2.53;2.33;;;;;;;;;;5074077;28;20204;-66
2023/07/05 14:14:00;;;;;;;2.42;2.20;;;;;;;;;;5074978;28;20232;-65
2023/07/05 14:16:28;;;;;;;2.50;2.30;;;;;;;;;;5057915;28;20290;-66
2023/07/05 14:18:56;;;;;;;3.10;2.50;;;;;;;;;;5074962;28;20200;-65
2023/07/05 14:21:26;;;;;;;2.38;2.17;;;;;;;;;;5074528;28;20744;-64
2023/07/05 14:23:54;;;;;;;2.58;2.38;;;;;;;;;;5074943;28;20192;-66
2023/07/05 14:26:21;;;;;;;2.53;2.33;;;;;;;;;;5075467;28;20200;-66
2023/07/05 14:28:49;;;;;;;2.60;2.40;;;;;;;;;;5074467;28;20224;-63
2023/07/05 14:31:17;;;;;;;2.70;2.50;;;;;;;;;;5074994;28;20234;-65
2023/07/05 14:33:45;;;;;;;2.40;2.20;;;;;;;;;;5074714;28;20359;-66
2023/07/05 14:36:15;;;;;;;2.75;2.55;;;;;;;;;;5074634;28;20211;-66
2023/07/05 14:38:44;;;;;;;2.63;2.42;;;;;;;;;;5074817;28;20296;-66
2023/07/05 14:41:23;;;;;;;2.90;2.70;;;;;;;;;;5075449;28;20199;-66
2023/07/05 14:43:51;;;;;;;2.80;2.50;;;;;;;;;;5074639;28;20487;-65
2023/07/05 14:46:20;;;;;;;2.92;2.72;;;;;;;;;;5057572;28;20661;-66
2023/07/05 14:48:48;;;;;;;2.97;2.67;;;;;;;;;;5074131;28;20236;-66